sensor_id;sensor_type;location;lat;lon;timestamp;P1;durP1;ratioP1;P2;durP2;ratioP2
67274;SDS011;55463;52.324;5.122;2022-07-23T00:00:51;6.50;;;2.00;;
67274;SDS011;55463;52.324;5.122;2022-07-23T00:03:16;8.10;;;2.03;;
67274;SDS011;55463;52.324;5.122;2022-07-23T00:05:41;4.05;;;2.00;;
67274;SDS011;55463;52.324;5.122;2022-07-23T00:08:07;4.47;;;2.10;;
67274;SDS011;55463;52.324;5.122;2022-07-23T00:10:33;6.03;;;2.10;;
67274;SDS011;55463;52.324;5.122;2022-07-23T00:12:58;4.05;;;2.00;;
67274;SDS011;55463;52.324;5.122;2022-07-23T00:15:24;6.40;;;2.15;;
67274;SDS011;55463;52.324;5.122;2022-07-23T00:17:50;2.97;;;1.88;;
67274;SDS011;55463;52.324;5.122;2022-07-23T00:20:15;3.28;;;2.30;;
67274;SDS011;55463;52.324;5.122;2022-07-23T00:25:13;3.83;;;2.00;;
67274;SDS011;55463;52.324;5.122;2022-07-23T00:27:39;16.42;;;2.75;;
67274;SDS011;55463;52.324;5.122;2022-07-23T00:30:05;3.72;;;1.90;;
67274;SDS011;55463;52.324;5.122;2022-07-23T00:32:31;4.20;;;1.80;;
67274;SDS011;55463;52.324;5.122;2022-07-23T00:34:56;3.85;;;1.83;;
67274;SDS011;55463;52.324;5.122;2022-07-23T00:37:22;3.28;;;1.60;;
67274;SDS011;55463;52.324;5.122;2022-07-23T00:39:47;3.65;;;1.95;;
67274;SDS011;55463;52.324;5.122;2022-07-23T00:42:12;3.80;;;1.90;;
67274;SDS011;55463;52.324;5.122;2022-07-23T00:44:38;8.80;;;2.13;;
67274;SDS011;55463;52.324;5.122;2022-07-23T00:47:03;3.15;;;1.80;;
67274;SDS011;55463;52.324;5.122;2022-07-23T00:49:30;5.38;;;1.80;;
67274;SDS011;55463;52.324;5.122;2022-07-23T00:51:56;5.07;;;2.40;;
67274;SDS011;55463;52.324;5.122;2022-07-23T00:54:23;3.25;;;1.73;;
67274;SDS011;55463;52.324;5.122;2022-07-23T00:56:50;3.53;;;1.77;;
67274;SDS011;55463;52.324;5.122;2022-07-23T00:59:16;2.83;;;1.95;;
67274;SDS011;55463;52.324;5.122;2022-07-23T01:01:41;2.92;;;1.77;;
67274;SDS011;55463;52.324;5.122;2022-07-23T01:04:08;4.90;;;1.80;;
67274;SDS011;55463;52.324;5.122;2022-07-23T01:06:35;5.05;;;1.80;;
67274;SDS011;55463;52.324;5.122;2022-07-23T01:09:03;2.63;;;1.90;;
67274;SDS011;55463;52.324;5.122;2022-07-23T01:11:29;9.25;;;2.00;;
67274;SDS011;55463;52.324;5.122;2022-07-23T01:13:56;8.20;;;1.95;;
67274;SDS011;55463;52.324;5.122;2022-07-23T01:16:21;4.80;;;1.73;;
67274;SDS011;55463;52.324;5.122;2022-07-23T01:18:47;5.32;;;1.73;;
67274;SDS011;55463;52.324;5.122;2022-07-23T01:21:12;4.88;;;1.80;;
67274;SDS011;55463;52.324;5.122;2022-07-23T01:23:38;2.30;;;1.30;;
67274;SDS011;55463;52.324;5.122;2022-07-23T01:26:03;3.13;;;1.75;;
67274;SDS011;55463;52.324;5.122;2022-07-23T01:28:29;4.38;;;1.75;;
67274;SDS011;55463;52.324;5.122;2022-07-23T01:30:55;3.53;;;1.85;;
67274;SDS011;55463;52.324;5.122;2022-07-23T01:33:20;4.43;;;1.50;;
67274;SDS011;55463;52.324;5.122;2022-07-23T01:35:45;6.78;;;1.80;;
67274;SDS011;55463;52.324;5.122;2022-07-23T01:38:11;3.95;;;1.73;;
67274;SDS011;55463;52.324;5.122;2022-07-23T01:40:36;3.63;;;1.60;;
67274;SDS011;55463;52.324;5.122;2022-07-23T01:43:01;2.95;;;1.70;;
67274;SDS011;55463;52.324;5.122;2022-07-23T01:45:27;6.28;;;1.75;;
67274;SDS011;55463;52.324;5.122;2022-07-23T01:47:52;3.88;;;1.80;;
67274;SDS011;55463;52.324;5.122;2022-07-23T01:50:17;8.35;;;2.67;;
67274;SDS011;55463;52.324;5.122;2022-07-23T01:52:43;4.57;;;2.00;;
67274;SDS011;55463;52.324;5.122;2022-07-23T01:55:08;5.07;;;1.85;;
67274;SDS011;55463;52.324;5.122;2022-07-23T01:57:34;2.65;;;1.75;;
67274;SDS011;55463;52.324;5.122;2022-07-23T01:59:59;3.47;;;1.70;;
67274;SDS011;55463;52.324;5.122;2022-07-23T02:02:24;2.00;;;1.50;;
67274;SDS011;55463;52.324;5.122;2022-07-23T02:04:50;7.50;;;2.00;;
67274;SDS011;55463;52.324;5.122;2022-07-23T02:07:15;11.98;;;2.05;;
67274;SDS011;55463;52.324;5.122;2022-07-23T02:09:41;2.75;;;2.00;;
67274;SDS011;55463;52.324;5.122;2022-07-23T02:12:06;2.88;;;1.73;;
67274;SDS011;55463;52.324;5.122;2022-07-23T02:14:32;1.83;;;1.63;;
67274;SDS011;55463;52.324;5.122;2022-07-23T02:16:57;3.35;;;1.85;;
67274;SDS011;55463;52.324;5.122;2022-07-23T02:19:22;5.13;;;1.90;;
67274;SDS011;55463;52.324;5.122;2022-07-23T02:21:48;4.03;;;2.38;;
67274;SDS011;55463;52.324;5.122;2022-07-23T02:24:14;4.05;;;2.55;;
67274;SDS011;55463;52.324;5.122;2022-07-23T02:26:39;2.40;;;2.20;;
67274;SDS011;55463;52.324;5.122;2022-07-23T02:29:04;3.38;;;2.20;;
67274;SDS011;55463;52.324;5.122;2022-07-23T02:31:30;7.57;;;1.80;;
67274;SDS011;55463;52.324;5.122;2022-07-23T02:33:56;3.47;;;1.80;;
67274;SDS011;55463;52.324;5.122;2022-07-23T02:36:21;2.72;;;1.80;;
67274;SDS011;55463;52.324;5.122;2022-07-23T02:38:50;5.65;;;1.98;;
67274;SDS011;55463;52.324;5.122;2022-07-23T02:41:15;6.10;;;1.90;;
67274;SDS011;55463;52.324;5.122;2022-07-23T02:43:41;3.00;;;2.00;;
67274;SDS011;55463;52.324;5.122;2022-07-23T02:46:06;2.80;;;1.88;;
67274;SDS011;55463;52.324;5.122;2022-07-23T02:48:32;4.32;;;1.80;;
67274;SDS011;55463;52.324;5.122;2022-07-23T02:50:58;5.32;;;1.90;;
67274;SDS011;55463;52.324;5.122;2022-07-23T02:53:23;2.55;;;1.70;;
67274;SDS011;55463;52.324;5.122;2022-07-23T02:55:48;1.60;;;1.50;;
67274;SDS011;55463;52.324;5.122;2022-07-23T02:58:14;5.72;;;1.60;;
67274;SDS011;55463;52.324;5.122;2022-07-23T03:00:40;7.82;;;1.90;;
67274;SDS011;55463;52.324;5.122;2022-07-23T03:03:05;3.83;;;1.67;;
67274;SDS011;55463;52.324;5.122;2022-07-23T03:05:32;1.75;;;1.60;;
67274;SDS011;55463;52.324;5.122;2022-07-23T03:07:58;5.72;;;1.90;;
67274;SDS011;55463;52.324;5.122;2022-07-23T03:10:23;3.35;;;1.60;;
67274;SDS011;55463;52.324;5.122;2022-07-23T03:12:48;2.42;;;1.52;;
67274;SDS011;55463;52.324;5.122;2022-07-23T03:15:14;3.47;;;1.83;;
67274;SDS011;55463;52.324;5.122;2022-07-23T03:17:39;4.40;;;1.90;;
67274;SDS011;55463;52.324;5.122;2022-07-23T03:20:04;2.63;;;1.67;;
67274;SDS011;55463;52.324;5.122;2022-07-23T03:22:30;4.43;;;1.85;;
67274;SDS011;55463;52.324;5.122;2022-07-23T03:24:56;4.03;;;1.85;;
67274;SDS011;55463;52.324;5.122;2022-07-23T03:27:22;2.75;;;1.88;;
67274;SDS011;55463;52.324;5.122;2022-07-23T03:29:48;4.28;;;1.50;;
67274;SDS011;55463;52.324;5.122;2022-07-23T03:32:14;3.13;;;1.55;;
67274;SDS011;55463;52.324;5.122;2022-07-23T03:34:39;3.60;;;1.48;;
67274;SDS011;55463;52.324;5.122;2022-07-23T03:37:05;3.72;;;1.60;;
67274;SDS011;55463;52.324;5.122;2022-07-23T03:39:30;2.42;;;1.40;;
67274;SDS011;55463;52.324;5.122;2022-07-23T03:41:56;7.45;;;1.65;;
67274;SDS011;55463;52.324;5.122;2022-07-23T03:44:21;3.17;;;1.27;;
67274;SDS011;55463;52.324;5.122;2022-07-23T03:46:46;2.08;;;1.42;;
67274;SDS011;55463;52.324;5.122;2022-07-23T03:49:12;2.58;;;1.80;;
67274;SDS011;55463;52.324;5.122;2022-07-23T03:51:37;6.70;;;1.50;;
67274;SDS011;55463;52.324;5.122;2022-07-23T03:54:03;2.55;;;1.50;;
67274;SDS011;55463;52.324;5.122;2022-07-23T03:56:28;1.38;;;1.27;;
67274;SDS011;55463;52.324;5.122;2022-07-23T03:58:53;3.22;;;1.35;;
67274;SDS011;55463;52.324;5.122;2022-07-23T04:01:19;1.70;;;1.60;;
67274;SDS011;55463;52.324;5.122;2022-07-23T04:03:44;4.57;;;1.40;;
67274;SDS011;55463;52.324;5.122;2022-07-23T04:06:11;2.38;;;1.60;;
67274;SDS011;55463;52.324;5.122;2022-07-23T04:08:38;4.05;;;1.30;;
67274;SDS011;55463;52.324;5.122;2022-07-23T04:11:03;1.77;;;1.42;;
67274;SDS011;55463;52.324;5.122;2022-07-23T04:13:29;2.17;;;1.58;;
67274;SDS011;55463;52.324;5.122;2022-07-23T04:15:54;4.40;;;1.70;;
67274;SDS011;55463;52.324;5.122;2022-07-23T04:18:19;2.97;;;1.60;;
67274;SDS011;55463;52.324;5.122;2022-07-23T04:20:48;7.60;;;1.80;;
67274;SDS011;55463;52.324;5.122;2022-07-23T04:23:15;3.40;;;1.50;;
67274;SDS011;55463;52.324;5.122;2022-07-23T04:25:40;2.25;;;1.55;;
67274;SDS011;55463;52.324;5.122;2022-07-23T04:28:06;2.63;;;1.70;;
67274;SDS011;55463;52.324;5.122;2022-07-23T04:30:31;1.67;;;1.55;;
67274;SDS011;55463;52.324;5.122;2022-07-23T04:32:56;8.23;;;2.17;;
67274;SDS011;55463;52.324;5.122;2022-07-23T04:35:22;2.97;;;1.73;;
67274;SDS011;55463;52.324;5.122;2022-07-23T04:37:47;3.75;;;1.80;;
67274;SDS011;55463;52.324;5.122;2022-07-23T04:40:12;2.40;;;1.50;;
67274;SDS011;55463;52.324;5.122;2022-07-23T04:42:38;3.10;;;1.60;;
67274;SDS011;55463;52.324;5.122;2022-07-23T04:45:04;4.13;;;1.77;;
67274;SDS011;55463;52.324;5.122;2022-07-23T04:47:30;4.00;;;1.63;;
67274;SDS011;55463;52.324;5.122;2022-07-23T04:49:56;1.70;;;1.33;;
67274;SDS011;55463;52.324;5.122;2022-07-23T04:52:22;4.72;;;1.45;;
67274;SDS011;55463;52.324;5.122;2022-07-23T04:54:47;2.65;;;1.42;;
67274;SDS011;55463;52.324;5.122;2022-07-23T04:57:13;2.30;;;1.45;;
67274;SDS011;55463;52.324;5.122;2022-07-23T04:59:38;5.90;;;1.52;;
67274;SDS011;55463;52.324;5.122;2022-07-23T05:02:04;3.58;;;1.60;;
67274;SDS011;55463;52.324;5.122;2022-07-23T05:04:29;2.13;;;1.70;;
67274;SDS011;55463;52.324;5.122;2022-07-23T05:06:56;3.13;;;1.70;;
67274;SDS011;55463;52.324;5.122;2022-07-23T05:09:21;3.30;;;1.48;;
67274;SDS011;55463;52.324;5.122;2022-07-23T05:11:47;2.55;;;1.50;;
67274;SDS011;55463;52.324;5.122;2022-07-23T05:14:12;2.92;;;1.80;;
67274;SDS011;55463;52.324;5.122;2022-07-23T05:16:38;4.28;;;1.42;;
67274;SDS011;55463;52.324;5.122;2022-07-23T05:19:03;3.50;;;1.45;;
67274;SDS011;55463;52.324;5.122;2022-07-23T05:21:29;6.57;;;1.42;;
67274;SDS011;55463;52.324;5.122;2022-07-23T05:23:54;2.72;;;1.35;;
67274;SDS011;55463;52.324;5.122;2022-07-23T05:26:21;2.53;;;1.38;;
67274;SDS011;55463;52.324;5.122;2022-07-23T05:28:46;5.43;;;1.50;;
67274;SDS011;55463;52.324;5.122;2022-07-23T05:31:11;4.38;;;1.95;;
67274;SDS011;55463;52.324;5.122;2022-07-23T05:33:37;1.38;;;1.10;;
67274;SDS011;55463;52.324;5.122;2022-07-23T05:36:03;1.88;;;1.38;;
67274;SDS011;55463;52.324;5.122;2022-07-23T05:38:29;9.05;;;2.03;;
67274;SDS011;55463;52.324;5.122;2022-07-23T05:40:55;2.25;;;1.33;;
67274;SDS011;55463;52.324;5.122;2022-07-23T05:43:20;1.45;;;1.08;;
67274;SDS011;55463;52.324;5.122;2022-07-23T05:45:46;1.85;;;1.17;;
67274;SDS011;55463;52.324;5.122;2022-07-23T05:48:11;3.45;;;1.30;;
67274;SDS011;55463;52.324;5.122;2022-07-23T05:50:36;2.33;;;1.35;;
67274;SDS011;55463;52.324;5.122;2022-07-23T05:53:02;3.15;;;1.85;;
67274;SDS011;55463;52.324;5.122;2022-07-23T05:55:28;1.83;;;1.30;;
67274;SDS011;55463;52.324;5.122;2022-07-23T05:57:56;3.30;;;1.30;;
67274;SDS011;55463;52.324;5.122;2022-07-23T06:00:22;2.00;;;1.20;;
67274;SDS011;55463;52.324;5.122;2022-07-23T06:02:48;3.13;;;1.33;;
67274;SDS011;55463;52.324;5.122;2022-07-23T06:05:13;4.75;;;1.48;;
67274;SDS011;55463;52.324;5.122;2022-07-23T06:07:38;3.67;;;1.40;;
67274;SDS011;55463;52.324;5.122;2022-07-23T06:10:04;2.83;;;1.10;;
67274;SDS011;55463;52.324;5.122;2022-07-23T06:12:30;2.15;;;1.20;;
67274;SDS011;55463;52.324;5.122;2022-07-23T06:14:55;2.95;;;1.30;;
67274;SDS011;55463;52.324;5.122;2022-07-23T06:17:20;2.70;;;1.10;;
67274;SDS011;55463;52.324;5.122;2022-07-23T06:19:46;2.63;;;1.30;;
67274;SDS011;55463;52.324;5.122;2022-07-23T06:22:11;2.72;;;1.30;;
67274;SDS011;55463;52.324;5.122;2022-07-23T06:24:37;4.78;;;1.40;;
67274;SDS011;55463;52.324;5.122;2022-07-23T06:27:03;2.95;;;1.33;;
67274;SDS011;55463;52.324;5.122;2022-07-23T06:29:28;2.60;;;1.48;;
67274;SDS011;55463;52.324;5.122;2022-07-23T06:31:54;1.55;;;1.02;;
67274;SDS011;55463;52.324;5.122;2022-07-23T06:34:19;1.02;;;1.00;;
67274;SDS011;55463;52.324;5.122;2022-07-23T06:36:44;1.40;;;0.93;;
67274;SDS011;55463;52.324;5.122;2022-07-23T06:39:10;1.95;;;1.00;;
67274;SDS011;55463;52.324;5.122;2022-07-23T06:41:35;1.90;;;1.10;;
67274;SDS011;55463;52.324;5.122;2022-07-23T06:44:01;1.75;;;1.10;;
67274;SDS011;55463;52.324;5.122;2022-07-23T06:46:26;2.50;;;0.98;;
67274;SDS011;55463;52.324;5.122;2022-07-23T06:48:52;1.52;;;1.02;;
67274;SDS011;55463;52.324;5.122;2022-07-23T06:51:17;2.45;;;1.13;;
67274;SDS011;55463;52.324;5.122;2022-07-23T06:53:42;3.33;;;1.13;;
67274;SDS011;55463;52.324;5.122;2022-07-23T06:56:08;5.60;;;1.20;;
67274;SDS011;55463;52.324;5.122;2022-07-23T06:58:33;2.25;;;1.33;;
67274;SDS011;55463;52.324;5.122;2022-07-23T07:00:58;4.03;;;1.60;;
67274;SDS011;55463;52.324;5.122;2022-07-23T07:03:24;2.28;;;1.20;;
67274;SDS011;55463;52.324;5.122;2022-07-23T07:05:49;4.93;;;1.40;;
67274;SDS011;55463;52.324;5.122;2022-07-23T07:08:15;4.30;;;1.63;;
67274;SDS011;55463;52.324;5.122;2022-07-23T07:10:41;1.77;;;1.10;;
67274;SDS011;55463;52.324;5.122;2022-07-23T07:13:06;7.00;;;1.23;;
67274;SDS011;55463;52.324;5.122;2022-07-23T07:15:31;2.80;;;1.27;;
67274;SDS011;55463;52.324;5.122;2022-07-23T07:17:57;1.80;;;1.35;;
67274;SDS011;55463;52.324;5.122;2022-07-23T07:20:22;2.42;;;1.30;;
67274;SDS011;55463;52.324;5.122;2022-07-23T07:22:48;1.20;;;1.10;;
67274;SDS011;55463;52.324;5.122;2022-07-23T07:25:14;2.20;;;1.20;;
67274;SDS011;55463;52.324;5.122;2022-07-23T07:27:39;2.95;;;1.13;;
67274;SDS011;55463;52.324;5.122;2022-07-23T07:30:05;2.13;;;1.27;;
67274;SDS011;55463;52.324;5.122;2022-07-23T07:32:31;5.32;;;1.48;;
67274;SDS011;55463;52.324;5.122;2022-07-23T07:34:57;3.15;;;1.23;;
67274;SDS011;55463;52.324;5.122;2022-07-23T07:37:23;3.90;;;1.15;;
67274;SDS011;55463;52.324;5.122;2022-07-23T07:39:48;1.30;;;1.08;;
67274;SDS011;55463;52.324;5.122;2022-07-23T07:42:13;1.65;;;1.20;;
67274;SDS011;55463;52.324;5.122;2022-07-23T07:44:39;3.20;;;1.20;;
67274;SDS011;55463;52.324;5.122;2022-07-23T07:47:04;1.80;;;1.10;;
67274;SDS011;55463;52.324;5.122;2022-07-23T07:49:30;1.90;;;1.10;;
67274;SDS011;55463;52.324;5.122;2022-07-23T07:51:55;4.28;;;1.70;;
67274;SDS011;55463;52.324;5.122;2022-07-23T07:54:20;4.47;;;1.45;;
67274;SDS011;55463;52.324;5.122;2022-07-23T07:56:46;5.25;;;1.38;;
67274;SDS011;55463;52.324;5.122;2022-07-23T07:59:13;2.38;;;1.40;;
67274;SDS011;55463;52.324;5.122;2022-07-23T08:01:39;3.80;;;1.08;;
67274;SDS011;55463;52.324;5.122;2022-07-23T08:04:05;1.80;;;1.10;;
67274;SDS011;55463;52.324;5.122;2022-07-23T08:06:30;3.25;;;1.27;;
67274;SDS011;55463;52.324;5.122;2022-07-23T08:08:56;2.25;;;1.73;;
67274;SDS011;55463;52.324;5.122;2022-07-23T08:11:21;2.95;;;1.45;;
67274;SDS011;55463;52.324;5.122;2022-07-23T08:13:47;9.25;;;1.48;;
67274;SDS011;55463;52.324;5.122;2022-07-23T08:16:12;1.38;;;1.27;;
67274;SDS011;55463;52.324;5.122;2022-07-23T08:18:38;1.30;;;1.20;;
67274;SDS011;55463;52.324;5.122;2022-07-23T08:21:03;3.80;;;1.45;;
67274;SDS011;55463;52.324;5.122;2022-07-23T08:23:30;5.95;;;1.40;;
67274;SDS011;55463;52.324;5.122;2022-07-23T08:25:56;3.63;;;1.30;;
67274;SDS011;55463;52.324;5.122;2022-07-23T08:28:22;2.72;;;1.08;;
67274;SDS011;55463;52.324;5.122;2022-07-23T08:30:48;6.38;;;1.40;;
67274;SDS011;55463;52.324;5.122;2022-07-23T08:33:14;4.20;;;1.13;;
67274;SDS011;55463;52.324;5.122;2022-07-23T08:35:42;1.85;;;1.10;;
67274;SDS011;55463;52.324;5.122;2022-07-23T08:38:10;2.42;;;1.02;;
67274;SDS011;55463;52.324;5.122;2022-07-23T08:40:37;5.03;;;1.67;;
67274;SDS011;55463;52.324;5.122;2022-07-23T08:43:07;1.30;;;1.20;;
67274;SDS011;55463;52.324;5.122;2022-07-23T08:45:38;2.38;;;1.20;;
67274;SDS011;55463;52.324;5.122;2022-07-23T08:48:09;4.25;;;1.20;;
67274;SDS011;55463;52.324;5.122;2022-07-23T08:50:37;2.83;;;1.15;;
67274;SDS011;55463;52.324;5.122;2022-07-23T08:53:07;1.50;;;0.93;;
67274;SDS011;55463;52.324;5.122;2022-07-23T08:55:33;2.47;;;1.10;;
67274;SDS011;55463;52.324;5.122;2022-07-23T08:57:59;2.78;;;1.10;;
67274;SDS011;55463;52.324;5.122;2022-07-23T09:00:25;2.45;;;1.08;;
67274;SDS011;55463;52.324;5.122;2022-07-23T09:02:50;1.92;;;1.05;;
67274;SDS011;55463;52.324;5.122;2022-07-23T09:05:16;7.28;;;1.42;;
67274;SDS011;55463;52.324;5.122;2022-07-23T09:10:44;3.53;;;1.20;;
67274;SDS011;55463;52.324;5.122;2022-07-23T09:13:22;4.05;;;1.30;;
67274;SDS011;55463;52.324;5.122;2022-07-23T09:15:56;1.55;;;1.00;;
67274;SDS011;55463;52.324;5.122;2022-07-23T09:18:28;2.00;;;1.25;;
67274;SDS011;55463;52.324;5.122;2022-07-23T09:21:10;1.98;;;1.10;;
67274;SDS011;55463;52.324;5.122;2022-07-23T09:23:57;5.25;;;1.40;;
67274;SDS011;55463;52.324;5.122;2022-07-23T09:26:26;3.78;;;1.20;;
67274;SDS011;55463;52.324;5.122;2022-07-23T09:29:02;3.30;;;1.05;;
67274;SDS011;55463;52.324;5.122;2022-07-23T09:34:15;1.20;;;1.10;;
67274;SDS011;55463;52.324;5.122;2022-07-23T09:36:45;1.75;;;1.13;;
67274;SDS011;55463;52.324;5.122;2022-07-23T09:39:12;2.80;;;1.05;;
67274;SDS011;55463;52.324;5.122;2022-07-23T09:41:40;1.65;;;1.15;;
67274;SDS011;55463;52.324;5.122;2022-07-23T09:49:13;4.45;;;1.10;;
67274;SDS011;55463;52.324;5.122;2022-07-23T09:51:44;3.33;;;1.20;;
67274;SDS011;55463;52.324;5.122;2022-07-23T09:56:56;4.10;;;1.30;;
67274;SDS011;55463;52.324;5.122;2022-07-23T09:59:27;7.00;;;1.20;;
67274;SDS011;55463;52.324;5.122;2022-07-23T10:01:56;2.95;;;1.02;;
67274;SDS011;55463;52.324;5.122;2022-07-23T10:04:24;1.55;;;1.13;;
67274;SDS011;55463;52.324;5.122;2022-07-23T10:06:53;2.60;;;1.30;;
67274;SDS011;55463;52.324;5.122;2022-07-23T10:09:25;2.38;;;1.25;;
67274;SDS011;55463;52.324;5.122;2022-07-23T10:12:03;2.83;;;1.40;;
67274;SDS011;55463;52.324;5.122;2022-07-23T10:14:33;3.15;;;1.50;;
67274;SDS011;55463;52.324;5.122;2022-07-23T10:17:00;2.88;;;1.55;;
67274;SDS011;55463;52.324;5.122;2022-07-23T10:19:26;3.30;;;1.50;;
67274;SDS011;55463;52.324;5.122;2022-07-23T10:21:55;2.00;;;1.02;;
67274;SDS011;55463;52.324;5.122;2022-07-23T10:27:19;2.95;;;1.17;;
67274;SDS011;55463;52.324;5.122;2022-07-23T10:30:06;2.05;;;1.10;;
67274;SDS011;55463;52.324;5.122;2022-07-23T10:38:37;3.22;;;1.40;;
67274;SDS011;55463;52.324;5.122;2022-07-23T10:41:10;1.85;;;1.20;;
67274;SDS011;55463;52.324;5.122;2022-07-23T10:43:35;1.83;;;1.40;;
67274;SDS011;55463;52.324;5.122;2022-07-23T10:49:30;3.05;;;1.50;;
67274;SDS011;55463;52.324;5.122;2022-07-23T10:54:56;4.97;;;1.67;;
67274;SDS011;55463;52.324;5.122;2022-07-23T10:57:48;2.75;;;1.58;;
67274;SDS011;55463;52.324;5.122;2022-07-23T11:00:15;2.97;;;1.70;;
67274;SDS011;55463;52.324;5.122;2022-07-23T11:02:45;3.15;;;1.75;;
67274;SDS011;55463;52.324;5.122;2022-07-23T11:05:39;4.93;;;1.75;;
67274;SDS011;55463;52.324;5.122;2022-07-23T11:08:11;3.58;;;2.03;;
67274;SDS011;55463;52.324;5.122;2022-07-23T11:16:13;4.40;;;1.73;;
67274;SDS011;55463;52.324;5.122;2022-07-23T11:32:06;5.35;;;1.60;;
67274;SDS011;55463;52.324;5.122;2022-07-23T11:36:57;4.43;;;2.20;;
67274;SDS011;55463;52.324;5.122;2022-07-23T11:39:24;5.85;;;2.00;;
67274;SDS011;55463;52.324;5.122;2022-07-23T11:41:51;3.63;;;1.70;;
67274;SDS011;55463;52.324;5.122;2022-07-23T11:44:27;4.90;;;1.73;;
67274;SDS011;55463;52.324;5.122;2022-07-23T11:47:03;2.28;;;1.85;;
67274;SDS011;55463;52.324;5.122;2022-07-23T11:49:31;2.13;;;1.65;;
67274;SDS011;55463;52.324;5.122;2022-07-23T11:54:32;2.92;;;1.75;;
67274;SDS011;55463;52.324;5.122;2022-07-23T11:56:59;3.55;;;1.95;;
67274;SDS011;55463;52.324;5.122;2022-07-23T11:59:31;3.85;;;1.77;;
67274;SDS011;55463;52.324;5.122;2022-07-23T12:02:01;3.72;;;1.90;;
67274;SDS011;55463;52.324;5.122;2022-07-23T12:09:54;3.35;;;1.70;;
67274;SDS011;55463;52.324;5.122;2022-07-23T12:12:21;4.38;;;2.47;;
67274;SDS011;55463;52.324;5.122;2022-07-23T12:14:57;2.97;;;1.65;;
67274;SDS011;55463;52.324;5.122;2022-07-23T12:17:28;3.55;;;1.67;;
67274;SDS011;55463;52.324;5.122;2022-07-23T12:19:56;3.30;;;1.63;;
67274;SDS011;55463;52.324;5.122;2022-07-23T12:22:26;2.90;;;1.83;;
67274;SDS011;55463;52.324;5.122;2022-07-23T12:24:59;4.10;;;1.90;;
67274;SDS011;55463;52.324;5.122;2022-07-23T12:27:27;4.82;;;1.73;;
67274;SDS011;55463;52.324;5.122;2022-07-23T12:29:53;4.82;;;1.60;;
67274;SDS011;55463;52.324;5.122;2022-07-23T12:32:25;2.72;;;1.83;;
67274;SDS011;55463;52.324;5.122;2022-07-23T12:35:06;4.35;;;1.90;;
67274;SDS011;55463;52.324;5.122;2022-07-23T12:37:35;2.50;;;1.73;;
67274;SDS011;55463;52.324;5.122;2022-07-23T12:42:53;2.97;;;1.70;;
67274;SDS011;55463;52.324;5.122;2022-07-23T12:45:19;4.68;;;1.80;;
67274;SDS011;55463;52.324;5.122;2022-07-23T12:53:15;3.20;;;1.50;;
67274;SDS011;55463;52.324;5.122;2022-07-23T12:56:00;3.65;;;1.60;;
67274;SDS011;55463;52.324;5.122;2022-07-23T13:01:07;4.10;;;1.75;;
67274;SDS011;55463;52.324;5.122;2022-07-23T13:03:35;2.92;;;1.80;;
67274;SDS011;55463;52.324;5.122;2022-07-23T13:06:01;5.85;;;2.15;;
67274;SDS011;55463;52.324;5.122;2022-07-23T13:08:29;2.85;;;1.67;;
67274;SDS011;55463;52.324;5.122;2022-07-23T13:10:56;2.55;;;1.90;;
67274;SDS011;55463;52.324;5.122;2022-07-23T13:13:22;3.80;;;2.20;;
67274;SDS011;55463;52.324;5.122;2022-07-23T13:15:49;3.50;;;2.00;;
67274;SDS011;55463;52.324;5.122;2022-07-23T13:18:15;2.88;;;1.63;;
67274;SDS011;55463;52.324;5.122;2022-07-23T13:20:41;2.22;;;2.00;;
67274;SDS011;55463;52.324;5.122;2022-07-23T13:23:08;2.40;;;1.70;;
67274;SDS011;55463;52.324;5.122;2022-07-23T13:25:33;2.80;;;1.90;;
67274;SDS011;55463;52.324;5.122;2022-07-23T13:27:59;2.65;;;1.88;;
67274;SDS011;55463;52.324;5.122;2022-07-23T13:30:24;4.82;;;2.30;;
67274;SDS011;55463;52.324;5.122;2022-07-23T13:32:50;3.40;;;2.00;;
67274;SDS011;55463;52.324;5.122;2022-07-23T13:35:15;4.30;;;1.90;;
67274;SDS011;55463;52.324;5.122;2022-07-23T13:37:41;3.53;;;1.90;;
67274;SDS011;55463;52.324;5.122;2022-07-23T13:40:07;2.78;;;1.92;;
67274;SDS011;55463;52.324;5.122;2022-07-23T13:42:33;7.15;;;2.50;;
67274;SDS011;55463;52.324;5.122;2022-07-23T13:44:58;1.83;;;1.70;;
67274;SDS011;55463;52.324;5.122;2022-07-23T13:47:24;3.33;;;2.17;;
67274;SDS011;55463;52.324;5.122;2022-07-23T13:49:50;3.38;;;1.90;;
67274;SDS011;55463;52.324;5.122;2022-07-23T13:52:15;2.17;;;1.98;;
67274;SDS011;55463;52.324;5.122;2022-07-23T13:54:41;2.58;;;2.20;;
67274;SDS011;55463;52.324;5.122;2022-07-23T13:57:06;3.22;;;2.08;;
67274;SDS011;55463;52.324;5.122;2022-07-23T13:59:33;2.63;;;1.88;;
67274;SDS011;55463;52.324;5.122;2022-07-23T14:01:59;5.45;;;1.80;;
67274;SDS011;55463;52.324;5.122;2022-07-23T14:04:25;5.03;;;3.00;;
67274;SDS011;55463;52.324;5.122;2022-07-23T14:06:50;5.35;;;2.75;;
67274;SDS011;55463;52.324;5.122;2022-07-23T14:09:16;3.88;;;2.38;;
67274;SDS011;55463;52.324;5.122;2022-07-23T14:11:41;3.45;;;2.15;;
67274;SDS011;55463;52.324;5.122;2022-07-23T14:14:06;5.95;;;2.53;;
67274;SDS011;55463;52.324;5.122;2022-07-23T14:16:32;4.43;;;2.30;;
67274;SDS011;55463;52.324;5.122;2022-07-23T14:18:57;3.20;;;2.70;;
67274;SDS011;55463;52.324;5.122;2022-07-23T14:21:23;6.15;;;2.90;;
67274;SDS011;55463;52.324;5.122;2022-07-23T14:23:48;6.47;;;3.05;;
67274;SDS011;55463;52.324;5.122;2022-07-23T14:26:13;3.00;;;2.10;;
67274;SDS011;55463;52.324;5.122;2022-07-23T14:28:39;4.18;;;2.10;;
67274;SDS011;55463;52.324;5.122;2022-07-23T14:31:04;2.58;;;2.20;;
67274;SDS011;55463;52.324;5.122;2022-07-23T14:33:30;3.78;;;2.60;;
67274;SDS011;55463;52.324;5.122;2022-07-23T14:35:55;3.22;;;2.50;;
67274;SDS011;55463;52.324;5.122;2022-07-23T14:38:20;4.40;;;2.35;;
67274;SDS011;55463;52.324;5.122;2022-07-23T14:40:46;4.68;;;1.98;;
67274;SDS011;55463;52.324;5.122;2022-07-23T14:43:11;2.47;;;1.90;;
67274;SDS011;55463;52.324;5.122;2022-07-23T14:45:36;3.08;;;2.00;;
67274;SDS011;55463;52.324;5.122;2022-07-23T14:48:02;4.40;;;2.13;;
67274;SDS011;55463;52.324;5.122;2022-07-23T14:50:28;6.18;;;2.40;;
67274;SDS011;55463;52.324;5.122;2022-07-23T14:52:54;3.95;;;2.30;;
67274;SDS011;55463;52.324;5.122;2022-07-23T14:55:19;4.00;;;2.15;;
67274;SDS011;55463;52.324;5.122;2022-07-23T14:57:45;5.05;;;2.00;;
67274;SDS011;55463;52.324;5.122;2022-07-23T15:00:11;3.40;;;2.20;;
67274;SDS011;55463;52.324;5.122;2022-07-23T15:02:37;4.63;;;2.20;;
67274;SDS011;55463;52.324;5.122;2022-07-23T15:05:05;3.47;;;1.90;;
67274;SDS011;55463;52.324;5.122;2022-07-23T15:07:31;4.72;;;2.20;;
67274;SDS011;55463;52.324;5.122;2022-07-23T15:09:57;5.00;;;2.55;;
67274;SDS011;55463;52.324;5.122;2022-07-23T15:12:25;5.95;;;3.13;;
67274;SDS011;55463;52.324;5.122;2022-07-23T15:14:50;3.47;;;2.30;;
67274;SDS011;55463;52.324;5.122;2022-07-23T15:17:16;5.85;;;2.50;;
67274;SDS011;55463;52.324;5.122;2022-07-23T15:19:43;3.78;;;2.38;;
67274;SDS011;55463;52.324;5.122;2022-07-23T15:22:09;5.28;;;2.75;;
67274;SDS011;55463;52.324;5.122;2022-07-23T15:24:34;6.47;;;2.08;;
67274;SDS011;55463;52.324;5.122;2022-07-23T15:27:00;2.50;;;2.30;;
67274;SDS011;55463;52.324;5.122;2022-07-23T15:29:25;3.67;;;2.20;;
67274;SDS011;55463;52.324;5.122;2022-07-23T15:31:51;9.05;;;2.70;;
67274;SDS011;55463;52.324;5.122;2022-07-23T15:34:16;2.25;;;2.05;;
67274;SDS011;55463;52.324;5.122;2022-07-23T15:36:41;2.90;;;2.20;;
67274;SDS011;55463;52.324;5.122;2022-07-23T15:39:07;2.25;;;2.00;;
67274;SDS011;55463;52.324;5.122;2022-07-23T15:41:33;2.92;;;2.20;;
67274;SDS011;55463;52.324;5.122;2022-07-23T15:43:58;3.72;;;2.58;;
67274;SDS011;55463;52.324;5.122;2022-07-23T15:46:24;3.30;;;2.47;;
67274;SDS011;55463;52.324;5.122;2022-07-23T15:48:50;3.25;;;2.17;;
67274;SDS011;55463;52.324;5.122;2022-07-23T15:51:16;3.47;;;1.85;;
67274;SDS011;55463;52.324;5.122;2022-07-23T15:53:41;4.93;;;2.08;;
67274;SDS011;55463;52.324;5.122;2022-07-23T15:56:07;4.28;;;2.30;;